Time;durP1;ratioP1;P1;durP2;ratioP2;P2;SDS_P1;SDS_P2;PMS_P1;PMS_P2;Temp;Humidity;BMP_temperature;BMP_pressure;BME280_temperature;BME280_humidity;BME280_pressure;Samples;Min_cycle;Max_cycle;Signal;HPM_P1;HPM_P2
2022/05/31 00:01:50;;;;;;;5.17;4.63;;;6.10;99.90;;;;;;5137300;27;20195;-72
2022/05/31 00:04:17;;;;;;;7.00;5.27;;;6.20;99.90;;;;;;5136882;27;20231;-72
2022/05/31 00:06:44;;;;;;;7.13;5.00;;;6.20;99.90;;;;;;5136752;27;20699;-71
2022/05/31 00:09:11;;;;;;;8.13;4.80;;;6.10;99.90;;;;;;5136796;27;20244;-71
2022/05/31 00:11:41;;;;;;;5.20;4.57;;;6.10;99.90;;;;;;5136924;27;20196;-72
2022/05/31 00:14:08;;;;;;;7.57;5.07;;;5.90;99.90;;;;;;5136944;27;20248;-72
2022/05/31 00:16:35;;;;;;;8.67;5.47;;;5.90;99.90;;;;;;5137035;27;20608;-72
2022/05/31 00:19:02;;;;;;;6.27;5.00;;;5.90;99.90;;;;;;5136761;27;20191;-72
2022/05/31 00:21:39;;;;;;;8.33;5.70;;;5.80;99.90;;;;;;5136776;27;20191;-71
2022/05/31 00:24:08;;;;;;;7.73;5.10;;;6.00;99.90;;;;;;5136685;27;20708;-71
2022/05/31 00:26:37;;;;;;;7.47;5.37;;;6.10;99.90;;;;;;5136850;27;20191;-72
2022/05/31 00:29:05;;;;;;;10.23;5.53;;;6.00;99.90;;;;;;5136705;27;20228;-72
2022/05/31 00:31:31;;;;;;;6.57;5.53;;;5.90;99.90;;;;;;5136603;27;20255;-72
2022/05/31 00:33:58;;;;;;;6.37;4.83;;;5.80;99.90;;;;;;5136530;27;20246;-72
2022/05/31 00:36:25;;;;;;;8.07;5.30;;;5.70;99.90;;;;;;5136371;27;20195;-72
2022/05/31 00:38:51;;;;;;;7.17;5.80;;;5.80;99.90;;;;;;5136360;27;20706;-72
2022/05/31 00:41:25;;;;;;;8.70;5.37;;;5.70;99.90;;;;;;5136345;27;20222;-72
2022/05/31 00:43:57;;;;;;;5.97;5.00;;;5.60;99.90;;;;;;5136479;27;20203;-72
2022/05/31 00:46:27;;;;;;;10.27;5.60;;;5.60;99.90;;;;;;5136179;27;20263;-72
2022/05/31 00:48:57;;;;;;;7.60;5.33;;;5.50;99.90;;;;;;5136234;27;20195;-72
2022/05/31 00:51:31;;;;;;;8.90;6.60;;;5.40;99.90;;;;;;5136134;27;20217;-72
2022/05/31 00:54:02;;;;;;;7.17;5.43;;;5.40;99.90;;;;;;5136238;27;20198;-72
2022/05/31 00:56:31;;;;;;;7.90;6.20;;;5.40;99.90;;;;;;5136127;27;20206;-72
2022/05/31 00:59:01;;;;;;;7.63;5.77;;;5.40;99.90;;;;;;5135979;27;20199;-72
2022/05/31 01:01:31;;;;;;;9.43;5.80;;;5.30;99.90;;;;;;5135808;27;20226;-72
2022/05/31 01:03:59;;;;;;;7.67;6.20;;;5.30;99.90;;;;;;5135759;27;20226;-72
2022/05/31 01:06:26;;;;;;;7.43;5.73;;;5.20;99.90;;;;;;5136018;27;20290;-72
2022/05/31 01:08:56;;;;;;;7.87;5.60;;;5.20;99.90;;;;;;5135567;27;20224;-72
2022/05/31 01:11:27;;;;;;;8.57;5.93;;;5.20;99.90;;;;;;5135784;27;20205;-72
2022/05/31 01:13:54;;;;;;;8.33;6.03;;;5.10;99.90;;;;;;5135748;27;20225;-72
2022/05/31 01:16:21;;;;;;;6.40;5.70;;;5.10;99.90;;;;;;5135882;27;20252;-72
2022/05/31 01:18:49;;;;;;;8.23;5.80;;;5.30;99.90;;;;;;5135759;27;20195;-71
2022/05/31 01:21:17;;;;;;;8.70;5.53;;;5.50;99.90;;;;;;5135630;27;20226;-73
2022/05/31 01:23:50;;;;;;;8.23;5.87;;;5.50;99.90;;;;;;5135882;27;20195;-72
2022/05/31 01:26:24;;;;;;;8.20;6.40;;;5.30;99.90;;;;;;5136709;27;20226;-72
2022/05/31 01:28:59;;;;;;;8.03;6.10;;;5.20;99.90;;;;;;5136046;27;20255;-72
2022/05/31 01:31:31;;;;;;;8.17;6.20;;;5.10;99.90;;;;;;5135658;27;20198;-72
2022/05/31 01:34:03;;;;;;;7.07;6.37;;;5.10;99.90;;;;;;5135757;27;20206;-72
2022/05/31 01:36:35;;;;;;;9.33;6.37;;;5.20;99.90;;;;;;5135543;27;20191;-72
2022/05/31 01:39:04;;;;;;;13.43;5.93;;;5.10;99.90;;;;;;5135323;27;20240;-72
2022/05/31 01:41:37;;;;;;;8.30;5.53;;;5.20;99.90;;;;;;5135202;27;20309;-72
2022/05/31 01:44:08;;;;;;;8.47;5.73;;;5.00;99.90;;;;;;5135438;27;20198;-72
2022/05/31 01:46:36;;;;;;;7.23;6.03;;;5.00;99.90;;;;;;5135092;27;20203;-72
2022/05/31 01:49:07;;;;;;;10.33;6.10;;;5.00;99.90;;;;;;5135176;27;20195;-72
2022/05/31 01:51:36;;;;;;;7.40;5.43;;;5.10;99.90;;;;;;5134882;27;20199;-72
2022/05/31 01:54:04;;;;;;;6.73;6.00;;;5.00;99.90;;;;;;5134862;27;20628;-72
2022/05/31 01:56:31;;;;;;;6.70;5.90;;;4.90;99.90;;;;;;5134945;27;20222;-72
2022/05/31 01:58:59;;;;;;;6.97;6.23;;;4.80;99.90;;;;;;5134862;27;20253;-72
2022/05/31 02:01:27;;;;;;;8.83;6.43;;;4.90;99.90;;;;;;5134692;27;20226;-72
2022/05/31 02:03:54;;;;;;;7.97;6.63;;;4.90;99.90;;;;;;5134594;27;20222;-72
2022/05/31 02:06:27;;;;;;;7.37;6.00;;;4.90;99.90;;;;;;5134639;27;20292;-72
2022/05/31 02:08:55;;;;;;;9.30;6.50;;;5.10;99.90;;;;;;5134689;27;20543;-72
2022/05/31 02:11:22;;;;;;;7.90;6.17;;;5.00;99.90;;;;;;5134619;27;20657;-72
2022/05/31 02:13:49;;;;;;;9.03;7.27;;;4.80;99.90;;;;;;5135259;27;20252;-71
2022/05/31 02:16:16;;;;;;;11.93;7.07;;;5.10;99.90;;;;;;5135809;27;20672;-72
2022/05/31 02:21:35;;;;;;;9.00;6.07;;;5.00;99.90;;;;;;5129642;27;20719;-73
2022/05/31 02:24:07;;;;;;;8.30;6.43;;;4.90;99.90;;;;;;5134599;27;20208;-72
2022/05/31 02:26:34;;;;;;;6.73;6.00;;;4.80;99.90;;;;;;5134454;27;20205;-72
2022/05/31 02:29:01;;;;;;;9.43;6.53;;;4.80;99.90;;;;;;5134322;27;20224;-73
2022/05/31 02:31:28;;;;;;;7.57;5.70;;;4.70;99.90;;;;;;5134193;27;20701;-73
2022/05/31 02:33:55;;;;;;;7.20;5.80;;;4.60;99.90;;;;;;5134403;27;20202;-72
2022/05/31 02:36:22;;;;;;;7.90;5.77;;;4.50;99.90;;;;;;5134055;27;20599;-70
2022/05/31 02:38:48;;;;;;;7.20;6.30;;;4.60;99.90;;;;;;5134227;27;20204;-72
2022/05/31 02:41:16;;;;;;;8.00;6.23;;;4.50;99.90;;;;;;5133911;27;20218;-72
2022/05/31 02:43:43;;;;;;;7.07;5.90;;;4.40;99.90;;;;;;5134057;27;20246;-72
2022/05/31 02:46:10;;;;;;;6.70;5.50;;;4.30;99.90;;;;;;5133955;27;20656;-72
2022/05/31 02:48:36;;;;;;;5.97;5.17;;;4.30;99.90;;;;;;5134099;27;20198;-72
2022/05/31 02:51:03;;;;;;;7.60;5.17;;;4.60;99.90;;;;;;5134047;27;20223;-72
2022/05/31 02:53:30;;;;;;;6.57;5.87;;;4.50;99.90;;;;;;5134021;27;20201;-72
2022/05/31 02:55:57;;;;;;;6.90;6.20;;;4.40;99.90;;;;;;5133775;27;20629;-72
2022/05/31 02:58:25;;;;;;;8.73;7.03;;;4.20;99.90;;;;;;5133827;27;20201;-72
2022/05/31 03:00:52;;;;;;;8.97;6.53;;;4.20;99.90;;;;;;5133810;27;20218;-72
2022/05/31 03:03:19;;;;;;;11.47;6.80;;;4.20;99.90;;;;;;5133599;27;20290;-72
2022/05/31 03:05:45;;;;;;;10.00;7.13;;;4.40;99.90;;;;;;5133690;27;20717;-72
2022/05/31 03:08:12;;;;;;;8.60;7.40;;;4.20;99.90;;;;;;5133768;27;20247;-72
2022/05/31 03:10:44;;;;;;;11.77;6.70;;;4.20;99.90;;;;;;5133589;28;20201;-72
2022/05/31 03:13:12;;;;;;;7.93;6.93;;;4.30;99.90;;;;;;5133667;28;20299;-72
2022/05/31 03:15:40;;;;;;;8.00;6.80;;;4.30;99.90;;;;;;5133809;28;20275;-72
2022/05/31 03:18:11;;;;;;;8.10;7.30;;;4.20;99.90;;;;;;5133650;28;20246;-72
2022/05/31 03:20:42;;;;;;;9.13;6.60;;;4.10;99.90;;;;;;5133541;28;20221;-72
2022/05/31 03:23:14;;;;;;;11.30;6.63;;;4.30;99.90;;;;;;5133580;28;20197;-72
2022/05/31 03:25:43;;;;;;;8.80;6.73;;;4.50;99.90;;;;;;5133666;28;20249;-72
2022/05/31 03:28:11;;;;;;;8.80;7.10;;;4.30;99.90;;;;;;5133499;28;20232;-73
2022/05/31 03:30:39;;;;;;;9.50;7.17;;;4.40;99.90;;;;;;5133529;28;20201;-72
2022/05/31 03:33:08;;;;;;;9.93;7.50;;;4.20;99.90;;;;;;5135598;27;20195;-72
2022/05/31 03:35:36;;;;;;;10.47;7.00;;;4.30;99.90;;;;;;5137492;27;20198;-72
2022/05/31 03:38:02;;;;;;;9.53;7.50;;;4.20;99.90;;;;;;5137337;27;20721;-72
2022/05/31 03:43:13;;;;;;;8.30;6.67;;;4.20;99.90;;;;;;5137425;27;20227;-72
2022/05/31 03:45:43;;;;;;;7.57;6.83;;;4.40;99.90;;;;;;5137253;27;20202;-72
2022/05/31 03:48:11;;;;;;;7.90;6.93;;;4.30;99.90;;;;;;5137101;27;20720;-72
2022/05/31 03:50:39;;;;;;;8.07;6.73;;;4.20;99.90;;;;;;5137229;27;20255;-72
2022/05/31 03:53:06;;;;;;;10.10;6.80;;;4.20;99.90;;;;;;5137281;27;20202;-72
2022/05/31 03:55:37;;;;;;;8.97;5.87;;;4.50;99.90;;;;;;5137185;27;20278;-72
2022/05/31 03:58:04;;;;;;;7.53;6.53;;;4.50;99.90;;;;;;5137144;27;20229;-72
2022/05/31 04:00:31;;;;;;;8.37;5.90;;;4.50;99.90;;;;;;5136955;27;20622;-72
2022/05/31 04:02:59;;;;;;;10.30;6.67;;;4.70;99.90;;;;;;5136683;27;20608;-72
2022/05/31 04:05:26;;;;;;;7.97;6.30;;;4.60;99.90;;;;;;5137141;27;20804;-72
2022/05/31 04:07:53;;;;;;;7.77;6.27;;;4.60;99.90;;;;;;5136897;27;20254;-72
2022/05/31 04:10:21;;;;;;;7.97;6.47;;;4.80;99.90;;;;;;5136794;27;20553;-72
2022/05/31 04:12:48;;;;;;;10.63;8.10;;;4.90;99.90;;;;;;5136572;27;20658;-72
2022/05/31 04:15:15;;;;;;;9.77;7.67;;;5.10;99.90;;;;;;5136710;27;20209;-72
2022/05/31 04:17:42;;;;;;;8.13;7.30;;;5.20;99.90;;;;;;5136819;27;20202;-72
2022/05/31 04:20:11;;;;;;;8.30;7.00;;;5.20;99.90;;;;;;5136763;27;20195;-72
2022/05/31 04:22:37;;;;;;;7.80;7.00;;;5.30;99.90;;;;;;5136631;27;20616;-72
2022/05/31 04:25:05;;;;;;;12.80;7.77;;;5.30;99.90;;;;;;5136481;27;20224;-72
2022/05/31 04:27:32;;;;;;;8.80;7.10;;;5.30;99.90;;;;;;5136515;27;20255;-72
2022/05/31 04:29:58;;;;;;;11.10;7.13;;;5.40;99.90;;;;;;5136367;27;20247;-72
2022/05/31 04:32:25;;;;;;;8.57;6.23;;;5.60;99.90;;;;;;5136527;27;20535;-72
2022/05/31 04:34:52;;;;;;;9.73;6.80;;;5.70;99.90;;;;;;5136540;27;20194;-72
2022/05/31 04:37:21;;;;;;;9.03;7.03;;;5.80;99.90;;;;;;5136328;27;20202;-72
2022/05/31 04:39:48;;;;;;;10.10;7.03;;;6.00;99.90;;;;;;5136363;27;20255;-72
2022/05/31 04:42:16;;;;;;;11.03;7.40;;;6.10;99.90;;;;;;5137798;27;20628;-72
2022/05/31 04:44:42;;;;;;;15.87;7.50;;;6.20;99.90;;;;;;5136278;27;20201;-72
2022/05/31 04:47:09;;;;;;;7.27;6.53;;;6.30;99.90;;;;;;5136414;27;20207;-72
2022/05/31 04:49:36;;;;;;;7.77;6.17;;;6.40;99.90;;;;;;5136157;27;20256;-72
2022/05/31 04:52:03;;;;;;;8.53;6.23;;;6.60;99.90;;;;;;5136170;27;20259;-72
2022/05/31 04:54:31;;;;;;;11.30;6.70;;;6.70;99.90;;;;;;5135902;27;20248;-73
2022/05/31 04:57:00;;;;;;;7.80;6.20;;;6.80;99.90;;;;;;5135792;27;20206;-73
2022/05/31 04:59:27;;;;;;;9.80;5.80;;;6.90;99.90;;;;;;5136108;27;20191;-72
2022/05/31 05:01:53;;;;;;;7.40;6.37;;;7.00;99.90;;;;;;5135743;27;20276;-73
2022/05/31 05:04:20;;;;;;;9.10;7.07;;;7.00;99.90;;;;;;5135701;27;20230;-72
2022/05/31 05:06:47;;;;;;;7.13;5.33;;;7.10;99.90;;;;;;5135604;27;20198;-72
2022/05/31 05:09:13;;;;;;;9.73;6.23;;;7.20;99.90;;;;;;5135777;27;20198;-73
2022/05/31 05:11:41;;;;;;;9.73;5.80;;;7.40;99.90;;;;;;5135619;27;20195;-72
2022/05/31 05:14:08;;;;;;;7.43;6.10;;;7.60;99.90;;;;;;5135462;27;20658;-72
2022/05/31 05:16:35;;;;;;;6.97;6.10;;;7.80;99.90;;;;;;5135499;27;20242;-72
2022/05/31 05:19:01;;;;;;;8.53;6.77;;;8.10;99.90;;;;;;5135505;27;20198;-73
2022/05/31 05:21:29;;;;;;;6.83;5.87;;;8.20;99.90;;;;;;5135327;27;20227;-73
2022/05/31 05:23:56;;;;;;;7.57;5.57;;;8.30;99.90;;;;;;5135230;27;20244;-72
2022/05/31 05:26:22;;;;;;;6.57;5.37;;;8.40;99.90;;;;;;5135559;27;20194;-72
2022/05/31 05:31:36;;;;;;;6.40;5.70;;;8.60;99.90;;;;;;5157620;27;20251;-76
2022/05/31 05:34:04;;;;;;;7.07;4.97;;;8.80;99.90;;;;;;5138590;27;20306;-77
2022/05/31 05:36:31;;;;;;;5.80;5.30;;;9.00;99.90;;;;;;5128923;27;20204;-73
2022/05/31 05:38:58;;;;;;;6.20;5.60;;;9.10;99.90;;;;;;5121516;27;20601;-74
2022/05/31 05:41:27;;;;;;;9.27;5.70;;;9.10;99.90;;;;;;5134445;27;20275;-74
2022/05/31 05:43:55;;;;;;;5.77;4.90;;;9.20;99.90;;;;;;5134769;27;20248;-74
2022/05/31 05:46:24;;;;;;;7.60;5.80;;;9.30;99.90;;;;;;5134602;27;20596;-74
2022/05/31 05:48:52;;;;;;;5.80;5.20;;;9.40;99.90;;;;;;5134814;27;20549;-73
2022/05/31 05:51:22;;;;;;;5.90;5.40;;;9.50;99.90;;;;;;5134678;27;20233;-74
2022/05/31 05:53:50;;;;;;;5.77;5.20;;;9.60;99.90;;;;;;5134768;27;20203;-73
2022/05/31 05:56:17;;;;;;;7.13;5.50;;;9.70;99.90;;;;;;5133759;27;20244;-73
2022/05/31 05:58:44;;;;;;;6.30;5.30;;;9.80;99.90;;;;;;5134753;27;20199;-73
2022/05/31 06:01:16;;;;;;;5.77;5.03;;;10.00;99.90;;;;;;5134680;27;20260;-73
2022/05/31 06:03:49;;;;;;;6.40;5.47;;;10.10;99.90;;;;;;5134360;27;20251;-73
2022/05/31 06:06:18;;;;;;;6.73;5.27;;;10.20;99.90;;;;;;5134670;27;20648;-73
2022/05/31 06:08:49;;;;;;;6.80;5.33;;;10.40;99.90;;;;;;5134544;27;20195;-73
2022/05/31 06:11:18;;;;;;;6.13;4.87;;;10.50;99.90;;;;;;5134453;27;20608;-73
2022/05/31 06:13:48;;;;;;;5.00;4.60;;;10.60;99.90;;;;;;5134441;27;20199;-73
2022/05/31 06:16:20;;;;;;;8.93;5.30;;;10.70;99.90;;;;;;5134321;27;20195;-74
2022/05/31 06:18:52;;;;;;;6.60;5.10;;;10.80;99.90;;;;;;5134412;27;20214;-73
2022/05/31 06:21:21;;;;;;;6.13;5.07;;;10.90;99.90;;;;;;5134206;27;20739;-73
2022/05/31 06:23:49;;;;;;;6.57;5.10;;;10.90;99.90;;;;;;5134430;27;20199;-73
2022/05/31 06:26:16;;;;;;;5.97;5.00;;;11.00;99.90;;;;;;5134303;27;20198;-74
2022/05/31 06:28:43;;;;;;;5.10;4.33;;;11.20;99.90;;;;;;5133996;27;20195;-73
2022/05/31 06:31:10;;;;;;;7.30;4.93;;;11.20;99.90;;;;;;5134263;27;20199;-73
2022/05/31 06:33:38;;;;;;;8.23;4.63;;;11.30;99.90;;;;;;5134254;27;20251;-73
2022/05/31 06:36:07;;;;;;;6.93;4.73;;;11.40;99.90;;;;;;5134060;27;20202;-72
2022/05/31 06:38:34;;;;;;;6.00;5.10;;;11.50;99.90;;;;;;5133930;27;20195;-72
2022/05/31 06:41:01;;;;;;;5.77;5.13;;;11.70;99.90;;;;;;5133741;27;20199;-74
2022/05/31 06:43:28;;;;;;;6.37;4.93;;;11.80;99.90;;;;;;5134019;27;20238;-73
2022/05/31 06:45:55;;;;;;;5.77;4.63;;;11.90;99.90;;;;;;5134030;27;20199;-73
2022/05/31 06:48:21;;;;;;;6.17;4.67;;;12.00;99.90;;;;;;5133843;27;20297;-73
2022/05/31 06:50:49;;;;;;;5.10;4.67;;;12.10;99.90;;;;;;5133829;27;20199;-73
2022/05/31 06:58:53;;;;;;;4.80;4.23;;;12.70;99.90;;;;;;5085140;27;20198;-73
2022/05/31 07:01:20;;;;;;;4.93;4.33;;;12.80;99.90;;;;;;5133623;27;20531;-73
2022/05/31 07:03:47;;;;;;;4.70;4.10;;;12.90;99.90;;;;;;5133626;27;20559;-73
2022/05/31 07:06:15;;;;;;;4.90;4.20;;;12.80;99.90;;;;;;5133678;27;20195;-73
2022/05/31 07:08:41;;;;;;;5.27;4.23;;;12.80;99.90;;;;;;5133439;27;20199;-73
2022/05/31 07:11:08;;;;;;;4.67;4.27;;;12.90;99.90;;;;;;5133739;27;20248;-73
2022/05/31 07:13:34;;;;;;;6.10;4.07;;;13.00;99.90;;;;;;5133750;28;20203;-73
2022/05/31 07:16:01;;;;;;;9.87;4.10;;;13.20;99.90;;;;;;5133570;28;20252;-73
2022/05/31 07:18:28;;;;;;;6.67;4.20;;;13.30;99.90;;;;;;5133523;28;20199;-73
2022/05/31 07:20:56;;;;;;;5.07;4.00;;;13.50;99.90;;;;;;5133383;28;20650;-73
2022/05/31 07:23:24;;;;;;;4.17;3.87;;;13.70;99.90;;;;;;5133550;28;20233;-73
2022/05/31 07:25:51;;;;;;;5.83;4.00;;;13.90;99.90;;;;;;5133601;28;20572;-74
2022/05/31 07:28:18;;;;;;;3.70;3.40;;;14.00;99.90;;;;;;5133539;28;20191;-74
2022/05/31 07:30:44;;;;;;;8.37;3.30;;;14.10;99.90;;;;;;5133434;28;20199;-74
2022/05/31 07:33:12;;;;;;;4.13;3.20;;;14.30;99.90;;;;;;5133056;28;20745;-74
2022/05/31 07:35:40;;;;;;;4.20;3.20;;;14.50;99.90;;;;;;5133518;28;20203;-74
2022/05/31 07:38:07;;;;;;;3.27;2.90;;;14.60;99.90;;;;;;5133469;28;20282;-74
2022/05/31 07:40:35;;;;;;;3.83;3.20;;;14.90;99.90;;;;;;5133412;28;20254;-74
2022/05/31 07:43:02;;;;;;;4.80;3.27;;;15.00;99.90;;;;;;5133376;28;20237;-74
2022/05/31 07:45:29;;;;;;;3.10;2.67;;;15.20;99.90;;;;;;5133278;28;20191;-74
2022/05/31 07:47:56;;;;;;;3.10;2.80;;;15.40;99.90;;;;;;5133224;28;20256;-74
2022/05/31 07:50:23;;;;;;;3.37;2.97;;;15.70;99.90;;;;;;5133464;28;20240;-74
2022/05/31 07:52:50;;;;;;;5.60;2.47;;;15.80;99.90;;;;;;5133400;28;20213;-74
2022/05/31 07:55:17;;;;;;;3.63;2.57;;;16.00;99.90;;;;;;5133197;28;20248;-74
2022/05/31 08:00:29;;;;;;;4.40;2.40;;;16.20;99.90;;;;;;5133137;28;20577;-74
2022/05/31 08:02:56;;;;;;;3.77;2.70;;;16.40;99.90;;;;;;5133019;28;20314;-74
2022/05/31 08:05:23;;;;;;;4.03;3.10;;;16.50;99.90;;;;;;5133153;28;20199;-74
2022/05/31 08:07:50;;;;;;;6.10;2.90;;;16.60;99.90;;;;;;5132976;28;20199;-74
2022/05/31 08:10:20;;;;;;;4.60;2.60;;;16.50;99.90;;;;;;5132962;28;20626;-73
2022/05/31 08:12:48;;;;;;;4.30;2.40;;;16.80;99.90;;;;;;5133149;28;20244;-74
2022/05/31 08:15:15;;;;;;;4.15;2.30;;;17.10;99.90;;;;;;5133118;28;20234;-73
2022/05/31 08:17:42;;;;;;;2.22;2.03;;;17.30;99.90;;;;;;5132966;28;20199;-73
2022/05/31 08:20:10;;;;;;;6.00;2.42;;;17.20;99.90;;;;;;5134692;27;20203;-74
2022/05/31 08:22:37;;;;;;;3.75;2.38;;;17.60;99.90;;;;;;5136485;27;20218;-73
2022/05/31 08:25:04;;;;;;;3.63;2.30;;;17.70;99.90;;;;;;5136510;27;20248;-73
2022/05/31 08:27:33;;;;;;;5.93;2.60;;;17.90;97.20;;;;;;5136328;27;20211;-73
2022/05/31 08:30:03;;;;;;;3.50;2.42;;;17.90;97.10;;;;;;5136206;27;20674;-73
2022/05/31 08:32:30;;;;;;;4.05;1.80;;;18.20;96.10;;;;;;5136443;27;20191;-73
2022/05/31 08:34:56;;;;;;;4.80;2.33;;;18.00;92.30;;;;;;5136388;27;20195;-73
2022/05/31 08:37:23;;;;;;;4.80;2.17;;;18.10;91.60;;;;;;5136283;27;20252;-74
2022/05/31 08:39:50;;;;;;;2.22;2.00;;;18.10;88.80;;;;;;5136231;27;20251;-73
2022/05/31 08:42:22;;;;;;;5.13;2.67;;;18.10;87.40;;;;;;5136347;27;20219;-73
2022/05/31 08:44:57;;;;;;;3.75;2.00;;;18.30;84.70;;;;;;5136309;27;20191;-74
2022/05/31 08:47:36;;;;;;;2.42;2.00;;;18.50;83.30;;;;;;5136183;27;20199;-73
2022/05/31 08:53:11;;;;;;;2.97;2.10;;;18.70;72.80;;;;;;5135994;27;20198;-73
2022/05/31 08:58:33;;;;;;;2.47;2.17;;;18.70;62.70;;;;;;5135833;27;20235;-73
2022/05/31 09:01:01;;;;;;;3.65;2.15;;;18.90;60.40;;;;;;5135843;27;20210;-74
2022/05/31 09:03:32;;;;;;;2.20;2.00;;;18.60;58.10;;;;;;5135708;27;20567;-74
2022/05/31 09:06:03;;;;;;;2.05;1.85;;;18.60;57.80;;;;;;5135857;27;20271;-75
2022/05/31 09:08:34;;;;;;;3.15;1.80;;;18.70;56.20;;;;;;5135630;27;20604;-74
2022/05/31 09:11:04;;;;;;;2.83;1.83;;;19.00;52.10;;;;;;5135480;27;20195;-74
2022/05/31 09:13:37;;;;;;;3.40;1.77;;;19.00;48.80;;;;;;5135769;27;20199;-73
2022/05/31 09:16:10;;;;;;;2.72;1.58;;;19.30;41.80;;;;;;5135735;27;20240;-73
2022/05/31 09:18:45;;;;;;;4.43;1.80;;;19.30;34.60;;;;;;5135685;27;20195;-74
2022/05/31 09:21:25;;;;;;;3.80;1.73;;;19.50;37.50;;;;;;5135476;27;20193;-73
2022/05/31 09:23:53;;;;;;;2.85;1.67;;;19.60;37.90;;;;;;5135204;27;20223;-74
2022/05/31 09:26:41;;;;;;;2.08;1.60;;;19.80;39.40;;;;;;5135403;27;20203;-74
2022/05/31 09:29:14;;;;;;;1.85;1.67;;;19.90;40.00;;;;;;5135303;27;20202;-74
2022/05/31 09:31:50;;;;;;;5.72;1.95;;;20.60;40.50;;;;;;5135008;27;20199;-74
2022/05/31 09:34:46;;;;;;;4.30;1.67;;;21.00;37.70;;;;;;5135072;27;20599;-74
2022/05/31 09:37:31;;;;;;;3.53;1.75;;;21.10;37.20;;;;;;5135201;27;20203;-74
2022/05/31 09:40:15;;;;;;;2.97;1.92;;;21.40;38.50;;;;;;5134972;27;20654;-74
2022/05/31 09:42:52;;;;;;;4.55;1.75;;;21.70;37.90;;;;;;5135080;27;20226;-74
2022/05/31 09:45:21;;;;;;;4.07;1.77;;;21.60;38.20;;;;;;5135083;27;20195;-74
2022/05/31 09:47:50;;;;;;;1.65;1.52;;;22.10;37.00;;;;;;5134925;27;20260;-74
2022/05/31 09:50:25;;;;;;;4.00;2.28;;;22.30;34.60;;;;;;5134783;27;20290;-74
2022/05/31 09:52:56;;;;;;;3.42;1.73;;;22.40;33.70;;;;;;5134786;27;20198;-74
2022/05/31 09:58:23;;;;;;;4.47;1.90;;;23.30;31.30;;;;;;5108041;27;20201;-74
2022/05/31 10:01:03;;;;;;;3.97;1.85;;;23.20;31.30;;;;;;5134685;27;20190;-74
2022/05/31 10:03:35;;;;;;;3.28;1.60;;;23.60;30.00;;;;;;5134513;27;20283;-73
2022/05/31 10:06:12;;;;;;;2.00;1.75;;;23.50;29.00;;;;;;5134983;27;20199;-74
2022/05/31 10:08:39;;;;;;;2.30;1.90;;;23.80;28.00;;;;;;5134559;27;20207;-74
2022/05/31 10:11:11;;;;;;;1.65;1.50;;;23.80;28.10;;;;;;5134552;27;20225;-74
2022/05/31 10:13:41;;;;;;;4.38;1.75;;;23.90;27.70;;;;;;5134346;27;20255;-74
2022/05/31 10:16:17;;;;;;;6.80;1.98;;;24.10;27.50;;;;;;5134669;27;20195;-74
2022/05/31 10:18:52;;;;;;;4.70;1.98;;;23.40;28.10;;;;;;5134405;27;20234;-74
2022/05/31 10:21:35;;;;;;;3.85;1.60;;;24.20;28.10;;;;;;5134361;27;20244;-74
2022/05/31 10:24:07;;;;;;;2.25;1.70;;;24.40;27.40;;;;;;5134086;27;20264;-74
2022/05/31 10:26:38;;;;;;;2.42;1.52;;;24.20;25.70;;;;;;5134568;27;20252;-74
2022/05/31 10:29:11;;;;;;;3.00;2.17;;;23.80;26.20;;;;;;5134245;27;20201;-74
2022/05/31 10:31:40;;;;;;;2.65;1.80;;;24.40;26.00;;;;;;5134177;27;20218;-76
2022/05/31 10:34:27;;;;;;;3.22;2.13;;;24.50;26.70;;;;;;5134088;27;20657;-74
2022/05/31 10:36:57;;;;;;;3.00;1.92;;;24.60;26.00;;;;;;5134142;27;20248;-74
2022/05/31 10:39:28;;;;;;;2.30;1.60;;;25.30;26.30;;;;;;5134005;27;20220;-74
2022/05/31 10:41:56;;;;;;;1.92;1.60;;;26.00;25.10;;;;;;5133365;27;20211;-74
2022/05/31 10:44:29;;;;;;;1.77;1.67;;;26.00;23.80;;;;;;5133750;27;20696;-74
2022/05/31 10:47:01;;;;;;;3.55;1.60;;;26.30;23.60;;;;;;5133843;27;20247;-74
2022/05/31 10:49:28;;;;;;;2.47;1.70;;;26.60;22.90;;;;;;5133995;27;20218;-74
2022/05/31 10:52:04;;;;;;;2.53;1.77;;;26.50;22.00;;;;;;5133951;27;20240;-74
2022/05/31 10:54:52;;;;;;;2.63;1.50;;;25.90;21.50;;;;;;5133772;27;20194;-74
2022/05/31 10:57:31;;;;;;;2.75;1.67;;;26.50;21.80;;;;;;5133759;27;20214;-75
2022/05/31 11:00:08;;;;;;;2.85;1.65;;;25.90;21.90;;;;;;5133649;27;20711;-75
2022/05/31 11:02:57;;;;;;;2.03;1.80;;;26.10;22.20;;;;;;5133665;27;20278;-75
2022/05/31 11:05:33;;;;;;;5.22;1.60;;;26.70;21.40;;;;;;5095207;27;20211;-75
2022/05/31 11:14:05;;;;;;;2.35;1.70;;;28.10;19.50;;;;;;5133614;27;20202;-75
2022/05/31 11:16:43;;;;;;;1.90;1.50;;;27.40;20.10;;;;;;5133698;28;20198;-75
2022/05/31 11:19:30;;;;;;;4.65;1.85;;;27.40;20.00;;;;;;5133670;28;20198;-75
2022/05/31 11:22:16;;;;;;;1.85;1.70;;;26.70;20.20;;;;;;5133681;28;20665;-75
2022/05/31 11:24:59;;;;;;;2.80;1.90;;;24.50;21.50;;;;;;5133631;28;20318;-75
2022/05/31 11:27:38;;;;;;;3.72;1.90;;;23.70;23.50;;;;;;5133735;28;20318;-75
2022/05/31 11:30:21;;;;;;;1.70;1.60;;;23.40;24.20;;;;;;5133366;28;20247;-75
2022/05/31 11:33:19;;;;;;;3.85;1.85;;;23.40;23.40;;;;;;5133258;28;20233;-75
2022/05/31 11:36:01;;;;;;;2.45;1.90;;;23.70;23.70;;;;;;5084712;28;20211;-75
2022/05/31 11:38:38;;;;;;;1.90;1.70;;;24.90;23.30;;;;;;5133255;28;20516;-75
2022/05/31 11:41:16;;;;;;;5.93;1.77;;;25.30;22.70;;;;;;5133299;28;20199;-74
2022/05/31 11:44:22;;;;;;;1.80;1.70;;;25.90;22.40;;;;;;5136301;28;20225;-73
2022/05/31 11:46:56;;;;;;;3.22;1.60;;;28.90;20.70;;;;;;5139633;28;20220;-72
2022/05/31 11:49:34;;;;;;;1.88;1.70;;;29.30;18.30;;;;;;5139471;28;20224;-74
2022/05/31 11:52:13;;;;;;;4.40;1.85;;;31.00;18.30;;;;;;5134382;28;20202;-73
2022/05/31 11:58:04;;;;;;;3.00;2.08;;;31.20;16.70;;;;;;5137173;27;20316;-74
2022/05/31 12:00:37;;;;;;;3.60;1.65;;;31.40;15.00;;;;;;5136961;27;20293;-74
2022/05/31 12:03:10;;;;;;;3.83;1.55;;;29.20;15.30;;;;;;5136913;27;20226;-74
2022/05/31 12:05:43;;;;;;;3.13;1.50;;;29.20;15.80;;;;;;5137509;27;20251;-75
2022/05/31 12:08:14;;;;;;;3.47;1.73;;;28.00;17.40;;;;;;5136654;27;20199;-74
2022/05/31 12:10:45;;;;;;;4.10;1.70;;;27.30;17.90;;;;;;5137062;27;20195;-74
2022/05/31 12:13:15;;;;;;;3.10;1.73;;;26.50;18.80;;;;;;5136773;27;20239;-74
2022/05/31 12:15:46;;;;;;;4.85;2.03;;;26.40;19.10;;;;;;5136929;27;20198;-74
2022/05/31 12:18:19;;;;;;;2.05;1.85;;;25.40;19.80;;;;;;5136829;27;20195;-74
2022/05/31 12:20:53;;;;;;;3.25;1.85;;;24.80;21.30;;;;;;5136587;27;20191;-78
2022/05/31 12:23:28;;;;;;;2.63;1.75;;;26.70;20.10;;;;;;5136753;27;20215;-74
2022/05/31 12:25:57;;;;;;;3.00;1.60;;;28.70;18.40;;;;;;5136545;27;20646;-75
2022/05/31 12:28:30;;;;;;;2.38;1.75;;;29.60;18.00;;;;;;5129917;27;20655;-77
2022/05/31 12:31:03;;;;;;;4.25;1.90;;;29.70;17.70;;;;;;5133508;27;20202;-75
2022/05/31 12:33:36;;;;;;;2.22;1.60;;;30.40;16.50;;;;;;5120205;27;20724;-75
2022/05/31 12:36:03;;;;;;;3.67;1.90;;;28.80;17.20;;;;;;5123264;28;20287;-75
2022/05/31 12:38:30;;;;;;;3.03;1.95;;;26.90;18.70;;;;;;5121434;28;20200;-75
2022/05/31 12:40:57;;;;;;;2.05;1.80;;;26.50;19.30;;;;;;5115261;28;20202;-75
2022/05/31 12:43:55;;;;;;;2.33;1.95;;;26.60;20.00;;;;;;5115275;28;20227;-74
2022/05/31 12:46:34;;;;;;;4.57;2.20;;;27.50;19.30;;;;;;5115653;28;20287;-75
2022/05/31 12:49:05;;;;;;;3.25;1.88;;;25.70;20.50;;;;;;5115320;28;20604;-76
2022/05/31 12:51:31;;;;;;;2.25;1.80;;;25.30;21.50;;;;;;5115753;28;20210;-76
2022/05/31 12:54:02;;;;;;;4.43;1.90;;;25.80;21.50;;;;;;5115581;28;20198;-76
2022/05/31 12:56:54;;;;;;;3.00;2.20;;;25.20;21.70;;;;;;5115613;28;20254;-75
2022/05/31 12:59:48;;;;;;;3.90;2.30;;;24.30;22.60;;;;;;5112219;28;20290;-76
2022/05/31 13:02:35;;;;;;;2.13;1.85;;;24.70;23.60;;;;;;5115252;28;20199;-76
2022/05/31 13:05:08;;;;;;;2.75;2.10;;;23.90;23.90;;;;;;5114286;28;20300;-78
2022/05/31 13:07:46;;;;;;;3.13;2.38;;;23.70;24.30;;;;;;5115251;28;20192;-77
2022/05/31 13:10:34;;;;;;;2.50;2.20;;;23.50;24.60;;;;;;5114945;28;20199;-77
2022/05/31 13:21:17;;;;;;;4.10;2.08;;;23.60;25.00;;;;;;5115112;28;20187;-78
2022/05/31 13:23:47;;;;;;;2.88;2.20;;;23.50;25.60;;;;;;5117236;28;20243;-79
2022/05/31 13:26:17;;;;;;;4.13;2.15;;;24.00;25.60;;;;;;5124527;27;20417;-77
2022/05/31 13:28:53;;;;;;;6.30;2.47;;;24.30;25.50;;;;;;5135021;27;20195;-78
2022/05/31 13:31:23;;;;;;;6.00;2.30;;;24.50;25.20;;;;;;5135515;27;20199;-78
2022/05/31 13:33:57;;;;;;;2.60;2.08;;;24.10;24.90;;;;;;5135234;27;20199;-78
2022/05/31 13:36:25;;;;;;;4.50;1.98;;;23.80;25.30;;;;;;5134700;27;20665;-77
2022/05/31 13:38:56;;;;;;;2.50;1.80;;;23.50;26.20;;;;;;5135277;27;20267;-78
2022/05/31 13:41:23;;;;;;;3.28;1.75;;;23.70;26.40;;;;;;5135247;27;20220;-79
2022/05/31 13:43:52;;;;;;;3.83;1.80;;;23.40;26.50;;;;;;5135008;27;20686;-79
2022/05/31 13:46:26;;;;;;;6.13;2.30;;;23.80;27.00;;;;;;5134702;27;20251;-78
2022/05/31 13:48:57;;;;;;;4.32;2.13;;;23.60;26.00;;;;;;5122600;27;20240;-78
2022/05/31 13:51:29;;;;;;;2.75;2.00;;;24.60;26.00;;;;;;5112226;28;20206;-78